Villa Alemana, Chile
Current Conditions -  °F | °C
As of 10:00 AM on Wednesday 22 Oct 2014 (Local Time) from SCVM Reporting Station
Haze Haze  
Wind Chill: 57°   Ceiling: 1100
Heat Index: 57°   Visibility: 2.5mi
Dew Point: 54°   Wind: 6mph
Humidity: 88%   Direction: 350°N
Pressure: 29.97"   Gusts: NA
Location:  33.04°S, 71.36°W
Report Text: SCVM 221400Z 35005KT 4000 BR OVC011 14/12 Q1015
Loading
Personal Weather Stations






























Interactive Weather Map New forecast layout! Learn more

10-Day Weather Forecast

Advertisements
Track Severe Weather on mobile